sensor_id;sensor_type;location;lat;lon;timestamp;temperature;humidity
7129;DHT22;3606;52.930;8.644;2023-01-28T00:00:26;1.00;1.00
7129;DHT22;3606;52.930;8.644;2023-01-28T00:02:52;1.00;45.60
7129;DHT22;3606;52.930;8.644;2023-01-28T00:05:17;1.00;99.90
7129;DHT22;3606;52.930;8.644;2023-01-28T00:07:43;1.00;1.00
7129;DHT22;3606;52.930;8.644;2023-01-28T00:10:09;1.00;1.00
7129;DHT22;3606;52.930;8.644;2023-01-28T00:12:35;1.10;27.30
7129;DHT22;3606;52.930;8.644;2023-01-28T00:15:00;1.00;99.90
7129;DHT22;3606;52.930;8.644;2023-01-28T00:17:26;1.00;1.00
7129;DHT22;3606;52.930;8.644;2023-01-28T00:19:52;0.90;1.00
7129;DHT22;3606;52.930;8.644;2023-01-28T00:22:17;0.90;1.00
7129;DHT22;3606;52.930;8.644;2023-01-28T00:24:44;0.90;1.00
7129;DHT22;3606;52.930;8.644;2023-01-28T00:27:10;0.90;21.60
7129;DHT22;3606;52.930;8.644;2023-01-28T00:29:36;0.80;35.10
7129;DHT22;3606;52.930;8.644;2023-01-28T00:32:02;0.90;1.00
7129;DHT22;3606;52.930;8.644;2023-01-28T00:34:27;1.00;99.90
7129;DHT22;3606;52.930;8.644;2023-01-28T00:36:53;1.00;1.00
7129;DHT22;3606;52.930;8.644;2023-01-28T00:39:23;1.00;1.00
7129;DHT22;3606;52.930;8.644;2023-01-28T00:41:52;1.00;1.00
7129;DHT22;3606;52.930;8.644;2023-01-28T00:44:19;0.90;99.90
7129;DHT22;3606;52.930;8.644;2023-01-28T00:46:45;1.00;85.70
7129;DHT22;3606;52.930;8.644;2023-01-28T00:49:11;1.00;1.00
7129;DHT22;3606;52.930;8.644;2023-01-28T00:51:36;0.90;6.20
7129;DHT22;3606;52.930;8.644;2023-01-28T00:54:02;0.90;99.90
7129;DHT22;3606;52.930;8.644;2023-01-28T00:56:28;1.00;1.00
7129;DHT22;3606;52.930;8.644;2023-01-28T00:58:53;1.00;99.90
7129;DHT22;3606;52.930;8.644;2023-01-28T01:01:22;1.00;1.00
7129;DHT22;3606;52.930;8.644;2023-01-28T01:03:48;1.10;99.90
7129;DHT22;3606;52.930;8.644;2023-01-28T01:06:40;1.10;1.00
7129;DHT22;3606;52.930;8.644;2023-01-28T01:09:09;1.00;1.00
7129;DHT22;3606;52.930;8.644;2023-01-28T01:11:35;1.00;99.90
7129;DHT22;3606;52.930;8.644;2023-01-28T01:14:01;1.00;84.80
7129;DHT22;3606;52.930;8.644;2023-01-28T01:16:29;1.00;99.90
7129;DHT22;3606;52.930;8.644;2023-01-28T01:18:56;0.90;99.90
7129;DHT22;3606;52.930;8.644;2023-01-28T01:21:25;0.90;99.90
7129;DHT22;3606;52.930;8.644;2023-01-28T01:23:52;0.90;1.00
7129;DHT22;3606;52.930;8.644;2023-01-28T01:26:18;0.90;1.00
7129;DHT22;3606;52.930;8.644;2023-01-28T01:28:44;0.90;1.00
7129;DHT22;3606;52.930;8.644;2023-01-28T01:31:12;0.80;83.10
7129;DHT22;3606;52.930;8.644;2023-01-28T01:33:39;0.80;99.90
7129;DHT22;3606;52.930;8.644;2023-01-28T01:36:06;0.80;99.90
7129;DHT22;3606;52.930;8.644;2023-01-28T01:38:31;0.80;99.90
7129;DHT22;3606;52.930;8.644;2023-01-28T01:40:58;0.90;79.60
7129;DHT22;3606;52.930;8.644;2023-01-28T01:43:24;0.90;99.90
7129;DHT22;3606;52.930;8.644;2023-01-28T01:45:56;0.80;99.90
7129;DHT22;3606;52.930;8.644;2023-01-28T01:48:32;0.80;99.90
7129;DHT22;3606;52.930;8.644;2023-01-28T01:51:07;0.80;97.60
7129;DHT22;3606;52.930;8.644;2023-01-28T01:53:40;0.80;99.90
7129;DHT22;3606;52.930;8.644;2023-01-28T01:56:08;0.80;99.90
7129;DHT22;3606;52.930;8.644;2023-01-28T01:58:38;0.70;1.00
7129;DHT22;3606;52.930;8.644;2023-01-28T02:01:06;0.70;52.00
7129;DHT22;3606;52.930;8.644;2023-01-28T02:03:45;0.70;99.90
7129;DHT22;3606;52.930;8.644;2023-01-28T02:06:12;0.70;1.00
7129;DHT22;3606;52.930;8.644;2023-01-28T02:08:38;0.70;1.00
7129;DHT22;3606;52.930;8.644;2023-01-28T02:11:05;0.70;1.00
7129;DHT22;3606;52.930;8.644;2023-01-28T02:13:35;0.60;99.90
7129;DHT22;3606;52.930;8.644;2023-01-28T02:16:03;0.70;99.90
7129;DHT22;3606;52.930;8.644;2023-01-28T02:18:31;0.60;1.00
7129;DHT22;3606;52.930;8.644;2023-01-28T02:23:34;0.60;55.10
7129;DHT22;3606;52.930;8.644;2023-01-28T02:26:46;0.60;99.90
7129;DHT22;3606;52.930;8.644;2023-01-28T02:31:48;0.60;99.90
7129;DHT22;3606;52.930;8.644;2023-01-28T02:37:14;0.60;99.90
7129;DHT22;3606;52.930;8.644;2023-01-28T02:39:50;0.60;1.00
7129;DHT22;3606;52.930;8.644;2023-01-28T02:42:27;0.50;36.60
7129;DHT22;3606;52.930;8.644;2023-01-28T02:44:53;0.60;99.90
7129;DHT22;3606;52.930;8.644;2023-01-28T02:47:19;0.60;99.90
7129;DHT22;3606;52.930;8.644;2023-01-28T02:50:14;0.50;99.90
7129;DHT22;3606;52.930;8.644;2023-01-28T02:53:10;0.50;99.90
7129;DHT22;3606;52.930;8.644;2023-01-28T02:59:26;0.50;1.00
7129;DHT22;3606;52.930;8.644;2023-01-28T03:02:22;0.50;99.90
7129;DHT22;3606;52.930;8.644;2023-01-28T03:04:59;0.50;1.00
7129;DHT22;3606;52.930;8.644;2023-01-28T03:07:29;0.50;1.00
7129;DHT22;3606;52.930;8.644;2023-01-28T03:09:57;0.40;1.00
7129;DHT22;3606;52.930;8.644;2023-01-28T03:12:27;0.40;99.90
7129;DHT22;3606;52.930;8.644;2023-01-28T03:15:14;0.40;99.90
7129;DHT22;3606;52.930;8.644;2023-01-28T03:18:24;0.40;99.90
7129;DHT22;3606;52.930;8.644;2023-01-28T03:21:40;0.30;1.00
7129;DHT22;3606;52.930;8.644;2023-01-28T03:24:30;0.30;72.90
7129;DHT22;3606;52.930;8.644;2023-01-28T03:27:30;0.20;99.90
7129;DHT22;3606;52.930;8.644;2023-01-28T03:30:26;0.30;99.90
7129;DHT22;3606;52.930;8.644;2023-01-28T03:33:13;0.20;1.00
7129;DHT22;3606;52.930;8.644;2023-01-28T03:35:58;0.20;1.00
7129;DHT22;3606;52.930;8.644;2023-01-28T03:38:42;0.20;1.00
7129;DHT22;3606;52.930;8.644;2023-01-28T03:41:22;0.10;2.30
7129;DHT22;3606;52.930;8.644;2023-01-28T03:43:49;0.10;88.00
7129;DHT22;3606;52.930;8.644;2023-01-28T03:46:15;0.10;1.00
7129;DHT22;3606;52.930;8.644;2023-01-28T03:48:41;0.10;99.90
7129;DHT22;3606;52.930;8.644;2023-01-28T03:51:06;0.10;1.00
7129;DHT22;3606;52.930;8.644;2023-01-28T03:53:32;0.10;19.60
7129;DHT22;3606;52.930;8.644;2023-01-28T03:55:58;0.10;1.00
7129;DHT22;3606;52.930;8.644;2023-01-28T03:58:24;0.10;1.20
7129;DHT22;3606;52.930;8.644;2023-01-28T04:01:11;0.10;99.90
7129;DHT22;3606;52.930;8.644;2023-01-28T04:03:37;0.20;1.00
7129;DHT22;3606;52.930;8.644;2023-01-28T04:06:07;0.20;99.90
7129;DHT22;3606;52.930;8.644;2023-01-28T04:08:33;0.20;99.90
7129;DHT22;3606;52.930;8.644;2023-01-28T04:10:59;0.20;99.90
7129;DHT22;3606;52.930;8.644;2023-01-28T04:13:44;0.20;99.90
7129;DHT22;3606;52.930;8.644;2023-01-28T04:16:11;0.20;99.90
7129;DHT22;3606;52.930;8.644;2023-01-28T04:18:37;0.20;99.90
7129;DHT22;3606;52.930;8.644;2023-01-28T04:21:02;0.20;1.00
7129;DHT22;3606;52.930;8.644;2023-01-28T04:23:28;0.20;1.00
7129;DHT22;3606;52.930;8.644;2023-01-28T04:25:56;0.20;99.90
7129;DHT22;3606;52.930;8.644;2023-01-28T04:28:22;0.20;1.00
7129;DHT22;3606;52.930;8.644;2023-01-28T04:30:47;0.20;1.00
7129;DHT22;3606;52.930;8.644;2023-01-28T04:33:13;0.20;1.00
7129;DHT22;3606;52.930;8.644;2023-01-28T04:35:39;0.20;1.00
7129;DHT22;3606;52.930;8.644;2023-01-28T04:38:05;0.20;1.00
7129;DHT22;3606;52.930;8.644;2023-01-28T04:40:30;0.20;99.90
7129;DHT22;3606;52.930;8.644;2023-01-28T04:42:56;0.10;1.00
7129;DHT22;3606;52.930;8.644;2023-01-28T04:45:23;0.10;99.90
7129;DHT22;3606;52.930;8.644;2023-01-28T04:47:49;0.10;1.00
7129;DHT22;3606;52.930;8.644;2023-01-28T04:50:14;0.00;99.90
7129;DHT22;3606;52.930;8.644;2023-01-28T04:52:40;0.00;1.00
7129;DHT22;3606;52.930;8.644;2023-01-28T04:55:06;0.00;99.90
7129;DHT22;3606;52.930;8.644;2023-01-28T04:57:32;0.00;99.90
7129;DHT22;3606;52.930;8.644;2023-01-28T04:59:58;0.00;1.00
7129;DHT22;3606;52.930;8.644;2023-01-28T05:02:23;0.00;99.90
7129;DHT22;3606;52.930;8.644;2023-01-28T05:04:49;0.00;99.90
7129;DHT22;3606;52.930;8.644;2023-01-28T05:07:14;0.00;1.00
7129;DHT22;3606;52.930;8.644;2023-01-28T05:09:40;0.00;1.00
7129;DHT22;3606;52.930;8.644;2023-01-28T05:12:05;0.00;99.90
7129;DHT22;3606;52.930;8.644;2023-01-28T05:14:31;0.00;99.90
7129;DHT22;3606;52.930;8.644;2023-01-28T05:16:57;0.00;1.00
7129;DHT22;3606;52.930;8.644;2023-01-28T05:19:22;0.00;1.00
7129;DHT22;3606;52.930;8.644;2023-01-28T05:21:48;0.00;99.90
7129;DHT22;3606;52.930;8.644;2023-01-28T05:24:13;-0.10;1.00
7129;DHT22;3606;52.930;8.644;2023-01-28T05:26:40;-0.10;1.00
7129;DHT22;3606;52.930;8.644;2023-01-28T05:29:06;-0.20;61.10
7129;DHT22;3606;52.930;8.644;2023-01-28T05:31:31;-0.20;23.00
7129;DHT22;3606;52.930;8.644;2023-01-28T05:33:57;-0.20;99.90
7129;DHT22;3606;52.930;8.644;2023-01-28T05:36:23;-0.30;1.00
7129;DHT22;3606;52.930;8.644;2023-01-28T05:38:48;-0.40;99.90
7129;DHT22;3606;52.930;8.644;2023-01-28T05:41:14;-0.40;1.00
7129;DHT22;3606;52.930;8.644;2023-01-28T05:43:39;-0.40;99.90
7129;DHT22;3606;52.930;8.644;2023-01-28T05:46:05;-0.40;1.00
7129;DHT22;3606;52.930;8.644;2023-01-28T05:48:31;-0.30;26.90
7129;DHT22;3606;52.930;8.644;2023-01-28T05:50:56;-0.30;99.90
7129;DHT22;3606;52.930;8.644;2023-01-28T05:53:22;-0.30;99.90
7129;DHT22;3606;52.930;8.644;2023-01-28T05:55:51;-0.40;1.00
7129;DHT22;3606;52.930;8.644;2023-01-28T05:58:20;-0.30;1.00
7129;DHT22;3606;52.930;8.644;2023-01-28T06:00:46;-0.40;99.90
7129;DHT22;3606;52.930;8.644;2023-01-28T06:03:12;-0.40;99.90
7129;DHT22;3606;52.930;8.644;2023-01-28T06:05:37;-0.50;99.90
7129;DHT22;3606;52.930;8.644;2023-01-28T06:08:04;-0.50;99.90
7129;DHT22;3606;52.930;8.644;2023-01-28T06:10:30;-0.50;1.00
7129;DHT22;3606;52.930;8.644;2023-01-28T06:12:56;-0.60;1.00
7129;DHT22;3606;52.930;8.644;2023-01-28T06:15:21;-0.60;3.60
7129;DHT22;3606;52.930;8.644;2023-01-28T06:17:47;-0.70;1.00
7129;DHT22;3606;52.930;8.644;2023-01-28T06:20:12;-0.80;1.00
7129;DHT22;3606;52.930;8.644;2023-01-28T06:22:38;-0.90;1.00
7129;DHT22;3606;52.930;8.644;2023-01-28T06:25:04;-1.00;99.90
7129;DHT22;3606;52.930;8.644;2023-01-28T06:27:30;-1.10;99.90
7129;DHT22;3606;52.930;8.644;2023-01-28T06:29:55;-1.20;58.20
7129;DHT22;3606;52.930;8.644;2023-01-28T06:32:21;-1.30;1.00
7129;DHT22;3606;52.930;8.644;2023-01-28T06:34:47;-1.30;1.00
7129;DHT22;3606;52.930;8.644;2023-01-28T06:37:13;-1.40;1.00
7129;DHT22;3606;52.930;8.644;2023-01-28T06:39:38;-1.30;1.00
7129;DHT22;3606;52.930;8.644;2023-01-28T06:42:04;-1.50;1.00
7129;DHT22;3606;52.930;8.644;2023-01-28T06:44:30;-1.70;1.00
7129;DHT22;3606;52.930;8.644;2023-01-28T06:46:55;-1.90;1.00
7129;DHT22;3606;52.930;8.644;2023-01-28T06:49:21;-2.10;1.00
7129;DHT22;3606;52.930;8.644;2023-01-28T06:51:47;-2.20;15.10
7129;DHT22;3606;52.930;8.644;2023-01-28T06:54:12;-2.30;94.90
7129;DHT22;3606;52.930;8.644;2023-01-28T06:56:38;-2.40;99.90
7129;DHT22;3606;52.930;8.644;2023-01-28T06:59:04;-2.40;99.90
7129;DHT22;3606;52.930;8.644;2023-01-28T07:01:30;-2.40;99.90
7129;DHT22;3606;52.930;8.644;2023-01-28T07:03:56;-2.20;99.90
7129;DHT22;3606;52.930;8.644;2023-01-28T07:06:22;-2.10;99.90
7129;DHT22;3606;52.930;8.644;2023-01-28T07:08:47;-2.20;99.90
7129;DHT22;3606;52.930;8.644;2023-01-28T07:11:14;-2.30;99.90
7129;DHT22;3606;52.930;8.644;2023-01-28T07:13:39;-2.40;99.90
7129;DHT22;3606;52.930;8.644;2023-01-28T07:16:05;-2.40;99.90
7129;DHT22;3606;52.930;8.644;2023-01-28T07:18:31;-2.50;99.90
7129;DHT22;3606;52.930;8.644;2023-01-28T07:20:57;-2.60;99.90
7129;DHT22;3606;52.930;8.644;2023-01-28T07:23:22;-2.60;99.90
7129;DHT22;3606;52.930;8.644;2023-01-28T07:25:48;-2.70;99.90
7129;DHT22;3606;52.930;8.644;2023-01-28T07:28:13;-2.70;99.90
7129;DHT22;3606;52.930;8.644;2023-01-28T07:30:49;-2.60;99.90
7129;DHT22;3606;52.930;8.644;2023-01-28T07:33:15;-2.40;99.90
7129;DHT22;3606;52.930;8.644;2023-01-28T07:35:40;-2.20;99.90
7129;DHT22;3606;52.930;8.644;2023-01-28T07:38:06;-2.00;99.90
7129;DHT22;3606;52.930;8.644;2023-01-28T07:40:31;-1.80;99.90
7129;DHT22;3606;52.930;8.644;2023-01-28T07:42:57;-1.60;99.90
7129;DHT22;3606;52.930;8.644;2023-01-28T07:45:23;-1.40;99.90
7129;DHT22;3606;52.930;8.644;2023-01-28T07:47:57;-1.10;99.90
7129;DHT22;3606;52.930;8.644;2023-01-28T07:50:23;-1.00;99.90
7129;DHT22;3606;52.930;8.644;2023-01-28T07:52:49;-0.60;99.90
7129;DHT22;3606;52.930;8.644;2023-01-28T07:55:15;-0.20;99.90
7129;DHT22;3606;52.930;8.644;2023-01-28T07:57:53;0.20;99.90
7129;DHT22;3606;52.930;8.644;2023-01-28T08:00:20;0.40;99.90
7129;DHT22;3606;52.930;8.644;2023-01-28T08:02:46;0.30;99.90
7129;DHT22;3606;52.930;8.644;2023-01-28T08:05:19;0.30;99.90
7129;DHT22;3606;52.930;8.644;2023-01-28T08:07:46;0.20;99.90
7129;DHT22;3606;52.930;8.644;2023-01-28T08:10:16;0.00;99.90
7129;DHT22;3606;52.930;8.644;2023-01-28T08:12:54;0.00;99.90
7129;DHT22;3606;52.930;8.644;2023-01-28T08:15:21;0.00;99.90
7129;DHT22;3606;52.930;8.644;2023-01-28T08:17:46;0.10;99.90
7129;DHT22;3606;52.930;8.644;2023-01-28T08:20:12;0.10;99.90
7129;DHT22;3606;52.930;8.644;2023-01-28T08:22:38;0.20;99.90
7129;DHT22;3606;52.930;8.644;2023-01-28T08:25:04;0.40;99.90
7129;DHT22;3606;52.930;8.644;2023-01-28T08:27:31;0.40;99.90
7129;DHT22;3606;52.930;8.644;2023-01-28T08:29:56;0.50;99.90
7129;DHT22;3606;52.930;8.644;2023-01-28T08:32:22;0.60;79.70
7129;DHT22;3606;52.930;8.644;2023-01-28T08:34:47;0.60;1.00
7129;DHT22;3606;52.930;8.644;2023-01-28T08:37:13;0.40;1.00
7129;DHT22;3606;52.930;8.644;2023-01-28T08:39:39;0.20;1.00
7129;DHT22;3606;52.930;8.644;2023-01-28T08:42:05;0.10;1.00
7129;DHT22;3606;52.930;8.644;2023-01-28T08:44:31;0.50;64.30
7129;DHT22;3606;52.930;8.644;2023-01-28T08:46:57;2.30;99.90
7129;DHT22;3606;52.930;8.644;2023-01-28T08:49:22;2.80;1.00
7129;DHT22;3606;52.930;8.644;2023-01-28T08:51:48;2.60;1.00
7129;DHT22;3606;52.930;8.644;2023-01-28T08:54:13;2.30;99.90
7129;DHT22;3606;52.930;8.644;2023-01-28T08:56:39;2.20;1.00
7129;DHT22;3606;52.930;8.644;2023-01-28T08:59:11;2.10;1.00
7129;DHT22;3606;52.930;8.644;2023-01-28T09:01:37;2.00;99.90
7129;DHT22;3606;52.930;8.644;2023-01-28T09:04:03;2.00;1.00
7129;DHT22;3606;52.930;8.644;2023-01-28T09:06:28;1.90;99.90
7129;DHT22;3606;52.930;8.644;2023-01-28T09:08:58;1.60;1.00
7129;DHT22;3606;52.930;8.644;2023-01-28T09:11:24;1.40;99.90
7129;DHT22;3606;52.930;8.644;2023-01-28T09:13:50;1.10;1.00
7129;DHT22;3606;52.930;8.644;2023-01-28T09:16:16;1.20;99.90
7129;DHT22;3606;52.930;8.644;2023-01-28T09:18:41;1.90;99.90
7129;DHT22;3606;52.930;8.644;2023-01-28T09:21:07;3.50;1.00
7129;DHT22;3606;52.930;8.644;2023-01-28T09:23:41;5.40;99.90
7129;DHT22;3606;52.930;8.644;2023-01-28T09:26:07;7.20;23.20
7129;DHT22;3606;52.930;8.644;2023-01-28T09:28:34;8.60;99.90
7129;DHT22;3606;52.930;8.644;2023-01-28T09:31:07;9.70;99.90
7129;DHT22;3606;52.930;8.644;2023-01-28T09:33:35;10.70;20.40
7129;DHT22;3606;52.930;8.644;2023-01-28T09:36:06;10.10;1.00
7129;DHT22;3606;52.930;8.644;2023-01-28T09:38:32;8.20;1.00
7129;DHT22;3606;52.930;8.644;2023-01-28T09:41:09;6.40;52.00
7129;DHT22;3606;52.930;8.644;2023-01-28T09:44:04;5.40;99.90
7129;DHT22;3606;52.930;8.644;2023-01-28T09:46:35;4.40;99.90
7129;DHT22;3606;52.930;8.644;2023-01-28T09:49:10;3.90;1.00
7129;DHT22;3606;52.930;8.644;2023-01-28T09:51:42;3.60;1.00
7129;DHT22;3606;52.930;8.644;2023-01-28T09:54:26;3.40;76.70
7129;DHT22;3606;52.930;8.644;2023-01-28T09:57:01;3.50;13.70
7129;DHT22;3606;52.930;8.644;2023-01-28T09:59:33;3.50;99.90
7129;DHT22;3606;52.930;8.644;2023-01-28T10:04:58;3.40;1.00
7129;DHT22;3606;52.930;8.644;2023-01-28T10:10:28;3.20;99.90
7129;DHT22;3606;52.930;8.644;2023-01-28T10:13:13;3.10;99.90
7129;DHT22;3606;52.930;8.644;2023-01-28T10:16:08;3.20;99.90
7129;DHT22;3606;52.930;8.644;2023-01-28T10:18:49;3.40;99.90
7129;DHT22;3606;52.930;8.644;2023-01-28T10:23:58;3.70;99.90
7129;DHT22;3606;52.930;8.644;2023-01-28T10:26:31;3.80;99.90
7129;DHT22;3606;52.930;8.644;2023-01-28T10:29:03;3.80;40.00
7129;DHT22;3606;52.930;8.644;2023-01-28T10:31:32;3.80;4.20
7129;DHT22;3606;52.930;8.644;2023-01-28T10:33:59;3.80;11.00
7129;DHT22;3606;52.930;8.644;2023-01-28T10:36:25;3.90;99.50
7129;DHT22;3606;52.930;8.644;2023-01-28T10:38:51;4.30;1.00
7129;DHT22;3606;52.930;8.644;2023-01-28T10:41:20;4.50;1.00
7129;DHT22;3606;52.930;8.644;2023-01-28T10:43:46;4.80;1.00
7129;DHT22;3606;52.930;8.644;2023-01-28T10:46:22;5.40;1.00
7129;DHT22;3606;52.930;8.644;2023-01-28T10:51:39;5.00;1.00
7129;DHT22;3606;52.930;8.644;2023-01-28T10:56:43;4.60;1.00
7129;DHT22;3606;52.930;8.644;2023-01-28T10:59:28;4.60;1.00
7129;DHT22;3606;52.930;8.644;2023-01-28T11:02:05;4.80;1.00
7129;DHT22;3606;52.930;8.644;2023-01-28T11:04:44;4.90;1.00
7129;DHT22;3606;52.930;8.644;2023-01-28T11:07:18;4.80;1.00
7129;DHT22;3606;52.930;8.644;2023-01-28T11:09:46;4.90;1.00
7129;DHT22;3606;52.930;8.644;2023-01-28T11:12:12;5.50;1.00
7129;DHT22;3606;52.930;8.644;2023-01-28T11:14:55;5.50;1.00
7129;DHT22;3606;52.930;8.644;2023-01-28T11:17:23;5.40;1.00
7129;DHT22;3606;52.930;8.644;2023-01-28T11:19:50;5.20;1.00
7129;DHT22;3606;52.930;8.644;2023-01-28T11:22:48;5.00;1.00
7129;DHT22;3606;52.930;8.644;2023-01-28T11:25:18;4.90;1.00
7129;DHT22;3606;52.930;8.644;2023-01-28T11:27:49;4.70;1.00
7129;DHT22;3606;52.930;8.644;2023-01-28T11:30:24;4.50;1.00
7129;DHT22;3606;52.930;8.644;2023-01-28T11:35:28;4.50;1.00
7129;DHT22;3606;52.930;8.644;2023-01-28T11:37:56;5.00;1.00
7129;DHT22;3606;52.930;8.644;2023-01-28T11:40:22;5.20;1.00
7129;DHT22;3606;52.930;8.644;2023-01-28T11:42:53;5.90;1.00
7129;DHT22;3606;52.930;8.644;2023-01-28T12:05:02;5.30;99.90
7129;DHT22;3606;52.930;8.644;2023-01-28T12:19:22;7.50;99.90
7129;DHT22;3606;52.930;8.644;2023-01-28T12:27:49;7.00;99.90
7129;DHT22;3606;52.930;8.644;2023-01-28T12:30:32;6.40;99.90
7129;DHT22;3606;52.930;8.644;2023-01-28T12:39:24;5.70;1.00
7129;DHT22;3606;52.930;8.644;2023-01-28T12:42:18;5.30;1.00
7129;DHT22;3606;52.930;8.644;2023-01-28T12:45:22;5.30;1.00
7129;DHT22;3606;52.930;8.644;2023-01-28T12:47:52;5.50;1.00
7129;DHT22;3606;52.930;8.644;2023-01-28T12:50:23;5.50;1.00
7129;DHT22;3606;52.930;8.644;2023-01-28T12:52:59;5.50;1.00
7129;DHT22;3606;52.930;8.644;2023-01-28T12:55:36;5.30;1.00
7129;DHT22;3606;52.930;8.644;2023-01-28T12:58:08;5.10;1.00
7129;DHT22;3606;52.930;8.644;2023-01-28T13:00:40;4.90;1.00
7129;DHT22;3606;52.930;8.644;2023-01-28T13:03:26;4.50;1.00
7129;DHT22;3606;52.930;8.644;2023-01-28T13:05:56;4.00;99.90
7129;DHT22;3606;52.930;8.644;2023-01-28T13:08:25;4.00;1.00
7129;DHT22;3606;52.930;8.644;2023-01-28T13:10:52;4.30;1.00
7129;DHT22;3606;52.930;8.644;2023-01-28T13:13:33;5.00;99.90
7129;DHT22;3606;52.930;8.644;2023-01-28T13:16:00;5.50;99.90
7129;DHT22;3606;52.930;8.644;2023-01-28T13:21:05;5.90;1.00
7129;DHT22;3606;52.930;8.644;2023-01-28T13:23:38;5.70;1.00
7129;DHT22;3606;52.930;8.644;2023-01-28T13:28:51;5.60;1.00
7129;DHT22;3606;52.930;8.644;2023-01-28T13:31:22;5.40;1.00
7129;DHT22;3606;52.930;8.644;2023-01-28T13:33:59;5.40;1.00
7129;DHT22;3606;52.930;8.644;2023-01-28T13:36:26;5.60;1.00
7129;DHT22;3606;52.930;8.644;2023-01-28T13:41:44;6.10;1.00
7129;DHT22;3606;52.930;8.644;2023-01-28T13:46:43;6.50;1.00
7129;DHT22;3606;52.930;8.644;2023-01-28T13:49:15;6.60;1.00
7129;DHT22;3606;52.930;8.644;2023-01-28T13:51:59;6.70;1.00
7129;DHT22;3606;52.930;8.644;2023-01-28T13:54:26;6.70;1.00
7129;DHT22;3606;52.930;8.644;2023-01-28T14:17:59;7.40;99.90
7129;DHT22;3606;52.930;8.644;2023-01-28T14:20:31;7.30;99.90
7129;DHT22;3606;52.930;8.644;2023-01-28T14:23:03;7.20;99.90
7129;DHT22;3606;52.930;8.644;2023-01-28T14:28:32;7.00;99.90
7129;DHT22;3606;52.930;8.644;2023-01-28T14:31:09;7.20;99.90
7129;DHT22;3606;52.930;8.644;2023-01-28T14:33:36;7.40;99.90
7129;DHT22;3606;52.930;8.644;2023-01-28T14:36:03;7.60;99.90
7129;DHT22;3606;52.930;8.644;2023-01-28T14:38:31;7.70;99.90
7129;DHT22;3606;52.930;8.644;2023-01-28T14:41:01;7.80;99.90
7129;DHT22;3606;52.930;8.644;2023-01-28T14:43:27;8.00;99.90
7129;DHT22;3606;52.930;8.644;2023-01-28T14:46:04;7.80;99.90
7129;DHT22;3606;52.930;8.644;2023-01-28T14:48:36;7.00;99.90
7129;DHT22;3606;52.930;8.644;2023-01-28T14:57:05;5.00;30.00
7129;DHT22;3606;52.930;8.644;2023-01-28T14:59:42;4.60;99.90
7129;DHT22;3606;52.930;8.644;2023-01-28T15:02:19;4.40;1.00
7129;DHT22;3606;52.930;8.644;2023-01-28T15:04:45;4.10;23.70
7129;DHT22;3606;52.930;8.644;2023-01-28T15:07:20;3.90;99.90
7129;DHT22;3606;52.930;8.644;2023-01-28T15:09:47;3.70;99.90
7129;DHT22;3606;52.930;8.644;2023-01-28T15:12:14;3.50;1.00
7129;DHT22;3606;52.930;8.644;2023-01-28T15:14:41;3.30;80.00
7129;DHT22;3606;52.930;8.644;2023-01-28T15:17:18;3.30;99.90
7129;DHT22;3606;52.930;8.644;2023-01-28T15:19:46;3.10;99.90
7129;DHT22;3606;52.930;8.644;2023-01-28T15:22:13;3.00;1.00
7129;DHT22;3606;52.930;8.644;2023-01-28T15:24:41;2.90;1.00
7129;DHT22;3606;52.930;8.644;2023-01-28T15:27:16;2.80;85.20
7129;DHT22;3606;52.930;8.644;2023-01-28T15:29:51;2.80;99.90
7129;DHT22;3606;52.930;8.644;2023-01-28T15:32:25;2.80;1.00
7129;DHT22;3606;52.930;8.644;2023-01-28T15:34:51;2.80;1.00
7129;DHT22;3606;52.930;8.644;2023-01-28T15:37:17;2.80;1.00
7129;DHT22;3606;52.930;8.644;2023-01-28T15:39:43;2.80;1.00
7129;DHT22;3606;52.930;8.644;2023-01-28T15:42:22;2.80;1.00
7129;DHT22;3606;52.930;8.644;2023-01-28T15:44:50;2.80;1.00
7129;DHT22;3606;52.930;8.644;2023-01-28T15:47:31;2.90;1.00
7129;DHT22;3606;52.930;8.644;2023-01-28T15:50:06;2.90;1.00
7129;DHT22;3606;52.930;8.644;2023-01-28T15:52:40;2.80;1.00
7129;DHT22;3606;52.930;8.644;2023-01-28T15:55:07;2.70;51.10
7129;DHT22;3606;52.930;8.644;2023-01-28T15:57:53;2.90;1.00
7129;DHT22;3606;52.930;8.644;2023-01-28T16:00:20;2.80;1.00
7129;DHT22;3606;52.930;8.644;2023-01-28T16:02:47;2.80;21.60
7129;DHT22;3606;52.930;8.644;2023-01-28T16:05:32;2.70;99.90
7129;DHT22;3606;52.930;8.644;2023-01-28T16:08:02;2.70;99.90
7129;DHT22;3606;52.930;8.644;2023-01-28T16:10:34;2.70;99.90
7129;DHT22;3606;52.930;8.644;2023-01-28T16:13:05;2.70;1.00
7129;DHT22;3606;52.930;8.644;2023-01-28T16:15:36;2.70;1.00
7129;DHT22;3606;52.930;8.644;2023-01-28T16:18:04;2.80;99.90
7129;DHT22;3606;52.930;8.644;2023-01-28T16:20:30;2.80;99.90
7129;DHT22;3606;52.930;8.644;2023-01-28T16:23:02;2.80;99.90
7129;DHT22;3606;52.930;8.644;2023-01-28T16:25:33;2.80;99.90
7129;DHT22;3606;52.930;8.644;2023-01-28T16:28:00;2.80;37.50
7129;DHT22;3606;52.930;8.644;2023-01-28T16:30:27;2.70;99.90
7129;DHT22;3606;52.930;8.644;2023-01-28T16:32:53;2.70;99.90
7129;DHT22;3606;52.930;8.644;2023-01-28T16:35:26;2.60;1.00
7129;DHT22;3606;52.930;8.644;2023-01-28T16:37:52;2.60;1.00
7129;DHT22;3606;52.930;8.644;2023-01-28T16:40:20;2.50;1.00
7129;DHT22;3606;52.930;8.644;2023-01-28T16:42:46;2.50;1.00
7129;DHT22;3606;52.930;8.644;2023-01-28T16:45:21;2.40;1.00
7129;DHT22;3606;52.930;8.644;2023-01-28T16:47:46;2.40;49.80
7129;DHT22;3606;52.930;8.644;2023-01-28T16:50:13;2.40;99.90
7129;DHT22;3606;52.930;8.644;2023-01-28T16:52:40;2.30;99.90
7129;DHT22;3606;52.930;8.644;2023-01-28T16:55:11;2.40;1.00
7129;DHT22;3606;52.930;8.644;2023-01-28T16:57:37;2.50;99.90
7129;DHT22;3606;52.930;8.644;2023-01-28T17:00:03;2.50;99.90
7129;DHT22;3606;52.930;8.644;2023-01-28T17:02:29;2.50;99.90
7129;DHT22;3606;52.930;8.644;2023-01-28T17:04:54;2.40;1.00
7129;DHT22;3606;52.930;8.644;2023-01-28T17:07:20;2.30;88.80
7129;DHT22;3606;52.930;8.644;2023-01-28T17:09:45;2.30;99.90
7129;DHT22;3606;52.930;8.644;2023-01-28T17:12:11;2.40;99.90
7129;DHT22;3606;52.930;8.644;2023-01-28T17:14:36;2.40;99.90
7129;DHT22;3606;52.930;8.644;2023-01-28T17:17:03;2.50;50.20
7129;DHT22;3606;52.930;8.644;2023-01-28T17:19:29;2.40;1.00
7129;DHT22;3606;52.930;8.644;2023-01-28T17:21:56;2.40;1.00
7129;DHT22;3606;52.930;8.644;2023-01-28T17:24:22;2.40;1.00
7129;DHT22;3606;52.930;8.644;2023-01-28T17:26:51;2.40;1.00
7129;DHT22;3606;52.930;8.644;2023-01-28T17:29:17;2.40;99.90
7129;DHT22;3606;52.930;8.644;2023-01-28T17:31:42;2.50;99.90
7129;DHT22;3606;52.930;8.644;2023-01-28T17:34:08;2.50;99.90
7129;DHT22;3606;52.930;8.644;2023-01-28T17:36:35;2.40;99.90
7129;DHT22;3606;52.930;8.644;2023-01-28T17:39:01;2.50;31.70
7129;DHT22;3606;52.930;8.644;2023-01-28T17:41:27;2.50;99.90
7129;DHT22;3606;52.930;8.644;2023-01-28T17:43:53;2.50;99.90
7129;DHT22;3606;52.930;8.644;2023-01-28T17:46:21;2.50;1.00
7129;DHT22;3606;52.930;8.644;2023-01-28T17:48:47;2.50;99.90
7129;DHT22;3606;52.930;8.644;2023-01-28T17:51:13;2.50;1.00
7129;DHT22;3606;52.930;8.644;2023-01-28T17:53:48;2.50;99.90
7129;DHT22;3606;52.930;8.644;2023-01-28T17:56:19;2.50;1.00
7129;DHT22;3606;52.930;8.644;2023-01-28T17:58:52;2.50;99.90
7129;DHT22;3606;52.930;8.644;2023-01-28T18:01:19;2.50;1.00
7129;DHT22;3606;52.930;8.644;2023-01-28T18:03:45;2.50;1.00
7129;DHT22;3606;52.930;8.644;2023-01-28T18:06:11;2.50;1.00
7129;DHT22;3606;52.930;8.644;2023-01-28T18:08:36;2.50;99.90
7129;DHT22;3606;52.930;8.644;2023-01-28T18:11:05;2.60;99.90
7129;DHT22;3606;52.930;8.644;2023-01-28T18:13:38;2.50;99.90
7129;DHT22;3606;52.930;8.644;2023-01-28T18:16:05;2.50;99.90
7129;DHT22;3606;52.930;8.644;2023-01-28T18:18:31;2.50;1.00
7129;DHT22;3606;52.930;8.644;2023-01-28T18:21:03;2.60;99.90
7129;DHT22;3606;52.930;8.644;2023-01-28T18:23:32;2.60;99.90
7129;DHT22;3606;52.930;8.644;2023-01-28T18:26:00;2.60;1.00
7129;DHT22;3606;52.930;8.644;2023-01-28T18:28:26;2.60;1.00
7129;DHT22;3606;52.930;8.644;2023-01-28T18:30:52;2.60;1.00